Terminal Aerodrome Forecast
Issued by NWS Cleveland, OH

Home | Current Version | Previous Version | Text Only | Print | Product List | Glossary On
Versions: 1 2 3 4 5 6 7 8 9 10 11 12 13 14 15 16 17 18 19
000
FTUS41 KCLE 200500
TAFCAK
TAF
KCAK 200532Z 2006/2106 VRB04KT 6SM BR VCTS SCT015 OVC035CB
      TEMPO 2007/2009 3SM -TSRA BR BKN015 OVC025CB
     FM201000 19006KT 4SM BR SCT008 BKN015
      TEMPO 2010/2013 1 1/2SM BR OVC008
     FM201400 22008KT P6SM BKN025
     FM201700 24009KT P6SM VCTS BKN035CB OVC150
     FM202300 24005KT P6SM BKN040 BKN150=

USA.gov is the U.S. government's official web portal to all federal, state and local government web resources and services.